createdAt,value
2023-02-05T00:02:22.313Z,7.20
2023-02-05T00:04:50.482Z,7.10
2023-02-05T00:07:20.783Z,7.10
2023-02-05T00:09:48.970Z,7.10
2023-02-05T00:12:18.610Z,7.00
2023-02-05T00:14:46.846Z,7.00
2023-02-05T00:17:15.002Z,6.90
2023-02-05T00:19:43.178Z,6.90
2023-02-05T00:22:11.321Z,6.80
2023-02-05T00:24:39.546Z,6.80
2023-02-05T00:27:10.184Z,6.80
2023-02-05T00:29:39.958Z,6.80
2023-02-05T00:32:08.124Z,6.80
2023-02-05T00:34:36.328Z,6.70
2023-02-05T00:37:04.479Z,6.70
2023-02-05T00:39:32.636Z,6.80
2023-02-05T00:42:00.792Z,6.80
2023-02-05T00:44:29.005Z,6.80
2023-02-05T00:46:58.561Z,6.80
2023-02-05T00:49:26.695Z,6.80
2023-02-05T00:51:55.058Z,6.80
2023-02-05T00:54:23.257Z,6.90
2023-02-05T00:56:51.422Z,6.90
2023-02-05T00:59:19.627Z,6.90
2023-02-05T01:01:47.838Z,6.90
2023-02-05T01:04:20.096Z,6.90
2023-02-05T01:06:48.302Z,6.90
2023-02-05T01:09:16.492Z,6.90
2023-02-05T01:11:44.634Z,6.90
2023-02-05T01:14:12.812Z,6.80
2023-02-05T01:16:40.978Z,6.80
2023-02-05T01:19:09.165Z,6.80
2023-02-05T01:21:38.726Z,6.80
2023-02-05T01:24:07.177Z,6.70
2023-02-05T01:26:35.380Z,6.70
2023-02-05T01:29:03.586Z,6.70
2023-02-05T01:31:33.317Z,6.70
2023-02-05T01:34:01.563Z,6.60
2023-02-05T01:36:29.741Z,6.60
2023-02-05T01:38:59.285Z,6.60
2023-02-05T01:41:27.426Z,6.60
2023-02-05T01:44:11.204Z,6.60
2023-02-05T01:46:40.455Z,6.60
2023-02-05T01:49:11.999Z,6.50
2023-02-05T01:51:40.577Z,6.50
2023-02-05T01:54:10.534Z,6.50
2023-02-05T01:56:42.014Z,6.50
2023-02-05T01:59:13.348Z,6.50
2023-02-05T02:01:43.212Z,6.50
2023-02-05T02:04:14.742Z,6.50
2023-02-05T02:06:43.247Z,6.60
2023-02-05T02:09:13.415Z,6.60
2023-02-05T02:11:44.726Z,6.60
2023-02-05T02:14:13.939Z,6.60
2023-02-05T02:16:42.640Z,6.70
2023-02-05T02:19:17.832Z,6.70
2023-02-05T02:22:13.901Z,6.80
2023-02-05T02:25:08.861Z,6.80
2023-02-05T02:27:44.526Z,6.90
2023-02-05T02:30:20.144Z,6.90
2023-02-05T02:32:53.847Z,6.90
2023-02-05T02:35:28.871Z,6.90
2023-02-05T02:38:05.896Z,6.90
2023-02-05T02:40:39.935Z,7.00
2023-02-05T02:43:14.705Z,7.00
2023-02-05T02:45:48.952Z,7.00
2023-02-05T02:48:19.798Z,7.00
2023-02-05T02:50:53.236Z,6.90
2023-02-05T02:53:25.112Z,6.90
2023-02-05T02:55:54.498Z,6.90
2023-02-05T02:58:28.835Z,6.90
2023-02-05T03:00:58.549Z,6.90
2023-02-05T03:03:29.901Z,6.90
2023-02-05T03:06:01.317Z,6.80
2023-02-05T03:08:34.665Z,6.80
2023-02-05T03:11:09.871Z,6.80
2023-02-05T03:13:39.585Z,6.70
2023-02-05T03:16:08.564Z,6.70
2023-02-05T03:18:37.244Z,6.70
2023-02-05T03:21:10.308Z,6.70
2023-02-05T03:23:38.463Z,6.70
2023-02-05T03:26:06.890Z,6.70
2023-02-05T03:28:35.070Z,6.70
2023-02-05T03:31:10.814Z,6.70
2023-02-05T03:33:46.232Z,6.70
2023-02-05T03:36:21.936Z,6.70
2023-02-05T03:39:12.552Z,6.70
2023-02-05T03:41:57.178Z,6.70
2023-02-05T03:44:43.194Z,6.80
2023-02-05T03:47:21.636Z,6.80
2023-02-05T03:49:59.072Z,6.80
2023-02-05T03:52:33.307Z,6.90
2023-02-05T03:55:08.811Z,6.90
2023-02-05T03:57:41.011Z,6.90
2023-02-05T04:00:10.815Z,7.00
2023-02-05T04:02:40.426Z,7.00
2023-02-05T04:05:08.964Z,7.00
2023-02-05T04:07:37.124Z,7.10
2023-02-05T04:10:05.580Z,7.10
2023-02-05T04:12:33.728Z,7.10
2023-02-05T04:15:01.910Z,7.10
2023-02-05T04:17:30.183Z,7.10
2023-02-05T04:19:59.707Z,7.20
2023-02-05T04:22:27.911Z,7.20
2023-02-05T04:24:56.217Z,7.20
2023-02-05T04:27:24.411Z,7.30
2023-02-05T04:29:52.582Z,7.30
2023-02-05T04:32:20.734Z,7.30
2023-02-05T04:34:48.891Z,7.30
2023-02-05T04:37:18.505Z,7.30
2023-02-05T04:39:47.943Z,7.30
2023-02-05T04:42:16.157Z,7.40
2023-02-05T04:44:44.316Z,7.40
2023-02-05T04:47:12.945Z,7.30
2023-02-05T04:49:41.875Z,7.30
2023-02-05T04:52:10.032Z,7.30
2023-02-05T04:54:39.898Z,7.30
2023-02-05T04:57:08.058Z,7.20
2023-02-05T04:59:36.217Z,7.20
2023-02-05T05:02:04.405Z,7.20
2023-02-05T05:04:32.585Z,7.20
2023-02-05T05:07:00.760Z,7.10
2023-02-05T05:09:28.949Z,7.10
2023-02-05T05:11:58.491Z,7.10
2023-02-05T05:14:26.643Z,7.10
2023-02-05T05:16:54.819Z,7.10
2023-02-05T05:19:22.978Z,7.10
2023-02-05T05:21:51.121Z,7.20
2023-02-05T05:24:19.348Z,7.20
2023-02-05T05:26:47.518Z,7.20
2023-02-05T05:29:17.284Z,7.20
2023-02-05T05:31:45.594Z,7.20
2023-02-05T05:34:13.755Z,7.20
2023-02-05T05:36:43.623Z,7.20
2023-02-05T05:39:29.428Z,7.20
2023-02-05T05:42:14.003Z,7.30
2023-02-05T05:44:43.578Z,7.30
2023-02-05T05:47:11.767Z,7.30
2023-02-05T05:49:40.002Z,7.30
2023-02-05T05:52:08.128Z,7.30
2023-02-05T05:54:36.288Z,7.30
2023-02-05T05:57:04.725Z,7.30
2023-02-05T05:59:32.893Z,7.30
2023-02-05T06:02:04.525Z,7.30
2023-02-05T06:04:32.761Z,7.30
2023-02-05T06:07:02.299Z,7.30
2023-02-05T06:09:30.605Z,7.30
2023-02-05T06:11:58.780Z,7.30
2023-02-05T06:14:27.028Z,7.30
2023-02-05T06:16:56.314Z,7.30
2023-02-05T06:19:25.879Z,7.30
2023-02-05T06:21:54.035Z,7.30
2023-02-05T06:24:22.236Z,7.30
2023-02-05T06:26:50.402Z,7.30
2023-02-05T06:29:18.623Z,7.30
2023-02-05T06:31:46.889Z,7.30
2023-02-05T06:34:15.132Z,7.30
2023-02-05T06:36:44.692Z,7.30
2023-02-05T06:39:12.841Z,7.30
2023-02-05T06:41:40.995Z,7.30
2023-02-05T06:44:09.312Z,7.20
2023-02-05T06:46:37.528Z,7.20
2023-02-05T06:49:05.750Z,7.20
2023-02-05T06:51:33.938Z,7.20
2023-02-05T06:54:03.474Z,7.10
2023-02-05T06:56:31.667Z,7.10
2023-02-05T06:58:59.811Z,7.10
2023-02-05T07:01:27.997Z,7.00
2023-02-05T07:03:56.311Z,7.00
2023-02-05T07:06:24.598Z,7.00
2023-02-05T07:08:52.971Z,6.90
2023-02-05T07:11:22.998Z,6.90
2023-02-05T07:13:51.201Z,6.90
2023-02-05T07:16:19.524Z,6.90
2023-02-05T07:18:47.859Z,6.90
2023-02-05T07:21:17.667Z,6.90
2023-02-05T07:23:46.119Z,6.90
2023-02-05T07:26:16.243Z,6.90
2023-02-05T07:28:46.617Z,6.90
2023-02-05T07:31:17.315Z,6.90
2023-02-05T07:33:46.795Z,6.90
2023-02-05T07:36:17.437Z,7.00
2023-02-05T07:38:47.037Z,7.00
2023-02-05T07:41:16.724Z,7.00
2023-02-05T07:43:46.548Z,7.00
2023-02-05T07:46:15.722Z,7.00
2023-02-05T07:48:44.039Z,7.00
2023-02-05T07:51:17.934Z,7.10
2023-02-05T07:53:46.446Z,7.10
2023-02-05T07:56:15.632Z,7.10
2023-02-05T07:58:45.309Z,7.20
2023-02-05T08:01:13.473Z,7.20
2023-02-05T08:03:41.689Z,7.20
2023-02-05T08:06:13.993Z,7.20
2023-02-05T08:08:42.244Z,7.20
2023-02-05T08:11:16.052Z,7.20
2023-02-05T08:13:46.664Z,7.20
2023-02-05T08:16:16.745Z,7.20
2023-02-05T08:18:48.153Z,7.20
2023-02-05T08:21:16.377Z,7.20
2023-02-05T08:23:44.619Z,7.20
2023-02-05T08:26:15.002Z,7.20
2023-02-05T08:28:46.025Z,7.20
2023-02-05T08:31:16.498Z,7.20
2023-02-05T08:33:45.815Z,7.20
2023-02-05T08:36:14.066Z,7.20
2023-02-05T08:38:42.232Z,7.20
2023-02-05T08:41:13.363Z,7.30
2023-02-05T08:43:42.969Z,7.30
2023-02-05T08:46:14.464Z,7.30
2023-02-05T08:48:43.004Z,7.30
2023-02-05T08:51:12.410Z,7.30
2023-02-05T08:53:40.945Z,7.30
2023-02-05T08:56:10.847Z,7.30
2023-02-05T08:58:40.019Z,7.20
2023-02-05T09:01:10.395Z,7.20
2023-02-05T09:03:40.224Z,7.20
2023-02-05T09:06:10.250Z,7.20
2023-02-05T09:08:39.172Z,7.30
2023-02-05T09:11:09.938Z,7.30
2023-02-05T09:13:39.249Z,7.30
2023-02-05T09:16:10.959Z,7.30
2023-02-05T09:18:40.560Z,7.30
2023-02-05T09:21:09.709Z,7.40
2023-02-05T09:23:38.591Z,7.40
2023-02-05T09:26:07.092Z,7.40
2023-02-05T09:28:35.365Z,7.50
2023-02-05T09:31:08.352Z,7.50
2023-02-05T09:33:36.620Z,7.50
2023-02-05T09:36:11.020Z,7.50
2023-02-05T09:38:39.550Z,7.50
2023-02-05T09:41:15.469Z,7.50
2023-02-05T09:43:51.774Z,7.50
2023-02-05T09:46:28.185Z,7.50
2023-02-05T09:48:59.465Z,7.40
2023-02-05T09:51:35.074Z,7.40
2023-02-05T09:54:12.946Z,7.40
2023-02-05T09:56:41.452Z,7.40
2023-02-05T09:59:15.353Z,7.40
2023-02-05T10:01:49.059Z,7.40
2023-02-05T10:04:17.488Z,7.30
2023-02-05T10:07:04.078Z,7.30
2023-02-05T10:09:44.544Z,7.30
2023-02-05T10:12:24.428Z,7.30
2023-02-05T10:15:04.879Z,7.30
2023-02-05T10:17:43.864Z,7.30
2023-02-05T10:20:34.426Z,7.30
2023-02-05T10:23:14.761Z,7.30
2023-02-05T10:25:56.342Z,7.30
2023-02-05T10:28:51.197Z,7.30
2023-02-05T10:31:28.799Z,7.30
2023-02-05T10:34:05.559Z,7.30
2023-02-05T10:36:34.319Z,7.30
2023-02-05T10:39:11.654Z,7.30
2023-02-05T10:41:43.727Z,7.30
2023-02-05T10:44:16.005Z,7.30
2023-02-05T10:46:51.674Z,7.30
2023-02-05T10:49:25.579Z,7.30
2023-02-05T10:51:55.024Z,7.30
2023-02-05T10:54:29.641Z,7.30
2023-02-05T10:56:58.742Z,7.30
2023-02-05T10:59:30.392Z,7.30
2023-02-05T11:02:04.340Z,7.30
2023-02-05T11:04:40.700Z,7.30
2023-02-05T11:07:14.443Z,7.30
2023-02-05T11:09:44.553Z,7.30
2023-02-05T11:12:24.064Z,7.40
2023-02-05T11:14:58.901Z,7.40
2023-02-05T11:17:33.241Z,7.40
2023-02-05T11:20:04.160Z,7.40
2023-02-05T11:22:35.419Z,7.40
2023-02-05T11:25:15.964Z,7.40
2023-02-05T11:27:53.571Z,7.50
2023-02-05T11:30:50.025Z,7.50
2023-02-05T11:33:32.377Z,7.50
2023-02-05T11:36:03.398Z,7.50
2023-02-05T11:38:43.269Z,7.60
2023-02-05T11:41:16.696Z,7.60
2023-02-05T11:43:50.647Z,7.60
2023-02-05T11:46:21.586Z,7.60
2023-02-05T11:48:56.541Z,7.60
2023-02-05T11:51:39.972Z,7.70
2023-02-05T11:54:17.967Z,7.70
2023-02-05T11:57:01.764Z,7.70
2023-02-05T11:59:30.015Z,7.70
2023-02-05T12:02:28.638Z,7.80
2023-02-05T12:05:02.073Z,7.80
2023-02-05T12:07:36.197Z,7.80
2023-02-05T12:10:04.746Z,7.80
2023-02-05T12:12:43.924Z,7.90
2023-02-05T12:15:18.042Z,7.80
2023-02-05T12:17:55.147Z,7.90
2023-02-05T12:20:29.471Z,8.00
2023-02-05T12:23:25.746Z,8.40
2023-02-05T12:26:05.870Z,9.00
2023-02-05T12:28:45.673Z,9.60
2023-02-05T12:31:24.000Z,10.00
2023-02-05T12:34:18.921Z,10.20
2023-02-05T12:37:01.264Z,10.30
2023-02-05T12:39:40.186Z,10.20
2023-02-05T12:42:20.646Z,10.20
2023-02-05T12:45:04.766Z,10.00
2023-02-05T12:47:47.352Z,9.80
2023-02-05T12:50:35.415Z,9.70
2023-02-05T12:53:17.738Z,9.60
2023-02-05T12:55:59.514Z,9.40
2023-02-05T12:58:35.062Z,9.30
2023-02-05T13:01:09.975Z,9.30
2023-02-05T13:03:43.532Z,9.10
2023-02-05T13:06:19.718Z,9.10
2023-02-05T13:08:52.645Z,9.00
2023-02-05T13:11:25.518Z,9.00
2023-02-05T13:13:59.448Z,8.90
2023-02-05T13:16:38.889Z,8.90
2023-02-05T13:19:18.422Z,8.80
2023-02-05T13:22:05.572Z,8.80
2023-02-05T13:24:55.791Z,8.80
2023-02-05T13:27:59.793Z,8.80
2023-02-05T13:30:32.923Z,8.70
2023-02-05T13:33:06.747Z,8.70
2023-02-05T13:35:42.627Z,8.70
2023-02-05T13:38:32.299Z,8.70
2023-02-05T13:41:28.906Z,8.70
2023-02-05T13:44:19.727Z,8.70
2023-02-05T13:47:22.489Z,8.80
2023-02-05T13:50:32.835Z,8.80
2023-02-05T13:53:28.826Z,8.80
2023-02-05T13:56:27.183Z,8.80
2023-02-05T13:58:58.684Z,8.90
2023-02-05T14:01:31.846Z,8.90
2023-02-05T14:04:03.157Z,8.90
2023-02-05T14:06:36.686Z,8.90
2023-02-05T14:09:08.686Z,8.90
2023-02-05T14:11:50.628Z,9.00
2023-02-05T14:14:29.003Z,9.00
2023-02-05T14:16:58.542Z,9.00
2023-02-05T14:19:55.989Z,9.10
2023-02-05T14:22:46.504Z,9.00
2023-02-05T14:26:06.570Z,9.10
2023-02-05T14:28:48.620Z,9.10
2023-02-05T14:31:49.516Z,9.10
2023-02-05T14:34:49.160Z,9.10
2023-02-05T14:37:39.746Z,9.10
2023-02-05T14:40:24.482Z,9.10
2023-02-05T14:43:08.426Z,9.10
2023-02-05T14:45:45.718Z,9.10
2023-02-05T14:48:22.942Z,9.20
2023-02-05T14:51:03.980Z,9.10
2023-02-05T14:53:34.034Z,9.10
2023-02-05T14:56:05.205Z,9.10
2023-02-05T14:58:40.772Z,9.10
2023-02-05T15:01:31.919Z,9.10
2023-02-05T15:04:01.185Z,9.10
2023-02-05T15:06:31.134Z,9.10
2023-02-05T15:09:05.545Z,9.20
2023-02-05T15:11:53.771Z,9.10
2023-02-05T15:14:41.630Z,9.20
2023-02-05T15:17:44.453Z,9.20
2023-02-05T15:20:22.111Z,9.20
2023-02-05T15:22:55.734Z,9.20
2023-02-05T15:25:33.855Z,9.20
2023-02-05T15:28:08.870Z,9.20
2023-02-05T15:30:49.096Z,9.20
2023-02-05T15:33:23.987Z,9.20
2023-02-05T15:35:52.952Z,9.30
2023-02-05T15:38:29.166Z,9.20
2023-02-05T15:40:58.673Z,9.30
2023-02-05T15:43:28.880Z,9.20
2023-02-05T15:46:02.862Z,9.30
2023-02-05T15:48:33.465Z,9.20
2023-02-05T15:51:03.881Z,9.20
2023-02-05T15:53:35.502Z,9.30
2023-02-05T15:56:12.087Z,9.30
2023-02-05T15:58:46.712Z,9.30
2023-02-05T16:01:24.451Z,9.30
2023-02-05T16:03:52.689Z,9.30
2023-02-05T16:06:22.206Z,9.30
2023-02-05T16:08:52.249Z,9.30
2023-02-05T16:11:28.859Z,9.30
2023-02-05T16:14:14.681Z,9.30
2023-02-05T16:16:47.432Z,9.30
2023-02-05T16:19:21.682Z,9.30
2023-02-05T16:21:53.669Z,9.20
2023-02-05T16:24:27.269Z,9.20
2023-02-05T16:27:00.627Z,9.30
2023-02-05T16:29:46.967Z,9.30
2023-02-05T16:32:26.337Z,9.20
2023-02-05T16:34:54.574Z,9.20
2023-02-05T16:37:29.089Z,9.20
2023-02-05T16:39:58.622Z,9.20
2023-02-05T16:42:35.285Z,9.20
2023-02-05T16:45:23.640Z,9.20
2023-02-05T16:48:21.944Z,9.20
2023-02-05T16:50:50.342Z,9.20
2023-02-05T16:53:25.565Z,9.20
2023-02-05T16:55:59.320Z,9.20
2023-02-05T16:58:34.128Z,9.10
2023-02-05T17:01:05.084Z,9.10
2023-02-05T17:03:37.325Z,9.10
2023-02-05T17:06:09.967Z,9.10
2023-02-05T17:08:39.119Z,9.10
2023-02-05T17:11:09.458Z,9.10
2023-02-05T17:13:40.423Z,9.10
2023-02-05T17:16:26.925Z,9.10
2023-02-05T17:18:57.572Z,9.10
2023-02-05T17:21:29.252Z,9.10
2023-02-05T17:23:59.666Z,9.00
2023-02-05T17:26:30.895Z,9.00
2023-02-05T17:29:01.003Z,9.00
2023-02-05T17:31:32.492Z,9.00
2023-02-05T17:34:00.863Z,9.00
2023-02-05T17:36:29.080Z,9.00
2023-02-05T17:38:57.507Z,9.00
2023-02-05T17:41:46.302Z,9.00
2023-02-05T17:44:16.690Z,9.00
2023-02-05T17:46:46.840Z,9.00
2023-02-05T17:49:15.041Z,9.00
2023-02-05T17:51:43.917Z,9.00
2023-02-05T17:54:15.044Z,9.00
2023-02-05T17:56:44.694Z,8.90
2023-02-05T17:59:14.827Z,9.00
2023-02-05T18:01:42.989Z,9.00
2023-02-05T18:04:13.128Z,9.00
2023-02-05T18:06:43.115Z,9.00
2023-02-05T18:09:12.412Z,9.00
2023-02-05T18:11:40.679Z,9.00
2023-02-05T18:14:09.184Z,9.00
2023-02-05T18:16:37.631Z,9.00
2023-02-05T18:19:05.882Z,9.00
2023-02-05T18:21:35.967Z,9.00
2023-02-05T18:24:04.791Z,9.00
2023-02-05T18:26:33.230Z,9.00
2023-02-05T18:29:01.381Z,9.00
2023-02-05T18:31:29.830Z,9.00
2023-02-05T18:33:58.136Z,9.00
2023-02-05T18:36:26.272Z,9.00
2023-02-05T18:38:57.573Z,9.00
2023-02-05T18:41:28.478Z,9.00
2023-02-05T18:43:57.339Z,9.00
2023-02-05T18:46:26.528Z,9.00
2023-02-05T18:48:56.283Z,9.00
2023-02-05T18:51:25.254Z,8.90
2023-02-05T18:53:54.083Z,8.90
2023-02-05T18:56:25.673Z,8.90
2023-02-05T18:58:56.399Z,8.90
2023-02-05T19:01:24.568Z,8.90
2023-02-05T19:03:54.643Z,8.90
2023-02-05T19:06:22.954Z,8.90
2023-02-05T19:08:51.464Z,8.80
2023-02-05T19:11:22.808Z,8.90
2023-02-05T19:13:58.063Z,8.80
2023-02-05T19:16:27.619Z,8.80
2023-02-05T19:18:55.911Z,8.80
2023-02-05T19:21:26.707Z,8.80
2023-02-05T19:23:56.298Z,8.80
2023-02-05T19:26:26.646Z,8.80
2023-02-05T19:28:58.378Z,8.90
2023-02-05T19:31:28.183Z,9.20
2023-02-05T19:33:57.256Z,9.60
2023-02-05T19:36:25.731Z,10.00
2023-02-05T19:38:54.117Z,10.20
2023-02-05T19:41:25.076Z,10.40
2023-02-05T19:43:55.310Z,10.40
2023-02-05T19:46:27.417Z,10.40
2023-02-05T19:48:57.139Z,10.30
2023-02-05T19:51:25.272Z,10.20
2023-02-05T19:53:53.447Z,10.10
2023-02-05T19:56:23.452Z,10.00
2023-02-05T19:58:53.598Z,9.80
2023-02-05T20:01:25.541Z,9.70
2023-02-05T20:03:54.145Z,9.60
2023-02-05T20:06:23.900Z,9.60
2023-02-05T20:08:52.126Z,9.50
2023-02-05T20:11:21.320Z,9.40
2023-02-05T20:13:49.654Z,9.30
2023-02-05T20:16:20.016Z,9.30
2023-02-05T20:18:54.311Z,9.20
2023-02-05T20:21:22.723Z,9.20
2023-02-05T20:23:51.154Z,9.10
2023-02-05T20:26:22.034Z,9.10
2023-02-05T20:29:11.287Z,9.10
2023-02-05T20:31:42.960Z,9.00
2023-02-05T20:34:18.240Z,9.10
2023-02-05T20:36:47.555Z,9.00
2023-02-05T20:39:17.179Z,9.00
2023-02-05T20:41:45.869Z,9.00
2023-02-05T20:44:14.294Z,9.00
2023-02-05T20:46:42.652Z,8.90
2023-02-05T20:49:12.572Z,8.90
2023-02-05T20:51:41.023Z,8.90
2023-02-05T20:54:09.461Z,8.90
2023-02-05T20:56:37.882Z,8.80
2023-02-05T20:59:08.110Z,8.80
2023-02-05T21:01:37.872Z,8.80
2023-02-05T21:04:07.334Z,8.80
2023-02-05T21:06:38.399Z,8.80
2023-02-05T21:09:07.380Z,8.80
2023-02-05T21:11:36.169Z,8.80
2023-02-05T21:14:04.579Z,8.70
2023-02-05T21:16:35.071Z,8.70
2023-02-05T21:19:04.479Z,8.70
2023-02-05T21:21:34.394Z,8.70
2023-02-05T21:24:06.233Z,8.70
2023-02-05T21:26:36.526Z,8.70
2023-02-05T21:29:07.627Z,8.70
2023-02-05T21:31:39.729Z,8.60
2023-02-05T21:34:09.812Z,8.60
2023-02-05T21:36:38.002Z,8.60
2023-02-05T21:39:07.771Z,8.60
2023-02-05T21:41:35.938Z,8.60
2023-02-05T21:44:04.993Z,8.60
2023-02-05T21:46:33.487Z,8.60
2023-02-05T21:49:02.266Z,8.60
2023-02-05T21:51:33.946Z,8.60
2023-02-05T21:54:03.986Z,8.60
2023-02-05T21:56:36.264Z,8.60
2023-02-05T21:59:04.836Z,8.50
2023-02-05T22:01:34.430Z,8.60
2023-02-05T22:04:05.050Z,8.50
2023-02-05T22:06:35.205Z,8.50
2023-02-05T22:09:04.992Z,8.50
2023-02-05T22:11:34.841Z,8.50
2023-02-05T22:14:03.026Z,8.50
2023-02-05T22:16:32.854Z,8.50
2023-02-05T22:19:02.886Z,8.50
2023-02-05T22:21:32.559Z,8.50
2023-02-05T22:24:02.668Z,8.40
2023-02-05T22:26:35.324Z,8.40
2023-02-05T22:29:06.203Z,8.50
2023-02-05T22:31:35.073Z,8.40
2023-02-05T22:34:03.671Z,8.40
2023-02-05T22:36:33.670Z,8.40
2023-02-05T22:39:02.128Z,8.40
2023-02-05T22:41:32.555Z,8.40
2023-02-05T22:44:04.028Z,8.40
2023-02-05T22:46:34.148Z,8.40
2023-02-05T22:49:03.735Z,8.40
2023-02-05T22:51:34.139Z,8.40
2023-02-05T22:54:02.733Z,8.40
2023-02-05T22:56:31.445Z,8.40
2023-02-05T22:59:03.283Z,8.40
2023-02-05T23:01:34.196Z,8.40
2023-02-05T23:04:06.472Z,8.40
2023-02-05T23:06:36.740Z,8.40
2023-02-05T23:09:08.070Z,8.50
2023-02-05T23:11:36.997Z,8.50
2023-02-05T23:14:07.552Z,8.50
2023-02-05T23:16:37.943Z,8.50
2023-02-05T23:19:10.626Z,8.50
2023-02-05T23:21:40.345Z,8.50
2023-02-05T23:24:09.496Z,8.50
2023-02-05T23:26:41.872Z,8.50
2023-02-05T23:29:12.973Z,8.50
2023-02-05T23:31:41.968Z,8.50
2023-02-05T23:34:10.578Z,8.50
2023-02-05T23:36:39.278Z,8.50
2023-02-05T23:39:07.623Z,8.60
2023-02-05T23:41:39.942Z,8.60
2023-02-05T23:44:12.936Z,8.60
2023-02-05T23:46:42.136Z,8.60
2023-02-05T23:49:10.478Z,8.60
2023-02-05T23:51:42.132Z,8.60
2023-02-05T23:54:12.166Z,8.60
2023-02-05T23:56:40.491Z,8.60
2023-02-05T23:59:10.912Z,8.60
